RJTQ(METAR)
04/28 16:00
RJTQ 280700Z 24014G26KT CAVOK 19/04 Q1005 RMK A2970=
戻る
トップページへ戻る
IMOC Co,.Ltd.